Etusivu
METAR-TAF:

METAR-TAF

Lentoasemat :

Mo i Rana, Norja

Leveyspiiri: 66-22N, Pituuspiiri: 014-18E, korkeus merenpinnasta: 7 m

Tämänhetkinen sää

Tämä raportti tehtiin 21 minuuttia sitten, kello 14.50 UTC
Tuuli 2 kn eri suunnista
Lämpötila 21°C
Kosteus 60%
Ilmanpaine 1023 hPa
Näkyvyys 10 km tai enemmän
Muutamia pilviä 6800 ft:n korkeudessa
Hajonneita pilviä 10000 ft:n korkeudessa

METAR: ENRA 111450Z VRB02KT 9999 FEW068 BKN100 21/13 Q1023

Aika: 17:11 (15:11 UTC)

Sääennuste

Tämä raportti tehtiin 1 tunti ja 11 minuuttia sitten, kello 14.00 UTC
Ennuste voimassa 11. päivästä klo 15 UTC - 11. päivään klo 22 UTC
Tuuli 5 kn lännestä/luoteesta
Näkyvyys 10 km tai enemmän
ei pilviä alle 1500 m:ssä eikä cumulonimbus-pilviä
Todennäköisyys 40% :
Ajoittain
11. päivästä klo 18 UTC - 11. päivään klo 21 UTC
Hajanaisia pilviä 2000 ft:n korkeudessa, Cumulonimbus.
vesikuuroja

TAF: ENRA 111400Z 1115/1122 29005KT CAVOK PROB40 TEMPO 1118/1121 SHRA SCT020CB

Säähavainnot ja -ennusteet yli 4000 lentoasemalta (METAR- ja TAF-raportit).

Käytössä olevat sääasemat on merkitty karttaan keltaisilla ja punaisilla pisteillä.

Aseta hiiri pisteen päälle nähdäksesi sääaseman nimen.

Klikkaa sitten nähdäksesi säähavainnot ja -ennusteet.

Kartan vaihtaminen: klikkaa mustalla rastilla varustettuja vihreitä pisteitä, niin voit zoomata sisään; viivalla varustettua vihreää pistettä, niin voit zoomata ulos tai vihreitä nuolia, niin pääset viereisille kartoille.


METAR-TAF: